createdAt,value
2018-07-16T00:02:19.668Z,22.00
2018-07-16T00:04:49.095Z,21.90
2018-07-16T00:07:53.755Z,21.90
2018-07-16T00:10:23.391Z,21.90
2018-07-16T00:12:52.786Z,22.00
2018-07-16T00:15:22.601Z,22.00
2018-07-16T00:17:51.513Z,22.00
2018-07-16T00:20:20.527Z,22.00
2018-07-16T00:22:49.690Z,21.90
2018-07-16T00:25:19.927Z,21.90
2018-07-16T00:27:50.123Z,21.80
2018-07-16T00:30:19.040Z,21.80
2018-07-16T00:32:48.089Z,21.70
2018-07-16T00:35:17.674Z,21.70
2018-07-16T00:37:46.704Z,21.70
2018-07-16T00:40:15.816Z,21.70
2018-07-16T00:42:58.647Z,21.70
2018-07-16T00:45:27.849Z,21.60
2018-07-16T00:47:56.910Z,21.60
2018-07-16T00:50:27.093Z,21.50
2018-07-16T00:52:56.258Z,21.50
2018-07-16T00:55:26.103Z,21.50
2018-07-16T00:57:57.515Z,21.50
2018-07-16T01:00:27.819Z,21.40
2018-07-16T01:02:58.339Z,21.30
2018-07-16T01:05:27.313Z,21.20
2018-07-16T01:07:56.622Z,21.20
2018-07-16T01:13:09.263Z,21.10
2018-07-16T01:15:47.838Z,21.10
2018-07-16T01:18:16.786Z,21.10
2018-07-16T01:20:46.187Z,21.10
2018-07-16T01:23:15.784Z,21.10
2018-07-16T01:25:45.135Z,21.00
2018-07-16T01:28:14.291Z,20.90
2018-07-16T01:30:43.582Z,20.90
2018-07-16T01:33:13.155Z,20.80
2018-07-16T01:35:42.954Z,20.90
2018-07-16T01:38:18.211Z,20.80
2018-07-16T01:40:47.638Z,20.80
2018-07-16T01:45:46.551Z,20.70
2018-07-16T01:48:15.799Z,20.60
2018-07-16T01:50:44.795Z,20.60
2018-07-16T01:53:13.657Z,20.60
2018-07-16T01:55:42.548Z,20.50
2018-07-16T01:58:11.914Z,20.50
2018-07-16T02:00:51.709Z,20.50
2018-07-16T02:03:21.106Z,20.40
2018-07-16T02:05:50.772Z,20.50
2018-07-16T02:08:23.464Z,20.50
2018-07-16T02:10:53.004Z,20.50
2018-07-16T02:13:22.059Z,20.50
2018-07-16T02:15:51.480Z,20.50
2018-07-16T02:18:22.781Z,20.50
2018-07-16T02:20:53.403Z,20.40
2018-07-16T02:23:22.652Z,20.40
2018-07-16T02:25:52.932Z,20.40
2018-07-16T02:28:25.995Z,20.40
2018-07-16T02:30:55.427Z,20.40
2018-07-16T02:33:24.284Z,20.40
2018-07-16T02:35:53.630Z,20.30
2018-07-16T02:38:22.657Z,20.30
2018-07-16T02:43:28.448Z,20.40
2018-07-16T02:45:57.589Z,20.30
2018-07-16T02:48:26.767Z,20.30
2018-07-16T02:50:55.972Z,20.30
2018-07-16T02:53:25.464Z,20.30
2018-07-16T02:55:54.430Z,20.10
2018-07-16T02:58:23.933Z,20.10
2018-07-16T03:00:56.166Z,20.00
2018-07-16T03:03:26.378Z,20.00
2018-07-16T03:05:55.566Z,20.00
2018-07-16T03:08:24.626Z,20.00
2018-07-16T03:10:53.611Z,20.00
2018-07-16T03:13:23.031Z,20.00
2018-07-16T03:15:52.000Z,20.00
2018-07-16T03:18:21.680Z,20.00
2018-07-16T03:20:51.119Z,20.00
2018-07-16T03:23:20.704Z,20.00
2018-07-16T03:25:50.303Z,19.90
2018-07-16T03:28:19.834Z,19.80
2018-07-16T03:30:48.966Z,19.80
2018-07-16T03:33:19.213Z,19.70
2018-07-16T03:35:48.221Z,19.70
2018-07-16T03:38:17.337Z,19.60
2018-07-16T03:40:47.246Z,19.50
2018-07-16T03:43:16.251Z,19.40
2018-07-16T03:45:45.311Z,19.40
2018-07-16T03:48:14.246Z,19.30
2018-07-16T03:50:43.295Z,19.30
2018-07-16T03:53:12.196Z,19.20
2018-07-16T03:55:41.208Z,19.10
2018-07-16T03:58:10.456Z,19.10
2018-07-16T04:00:39.582Z,19.00
2018-07-16T04:05:38.811Z,19.10
2018-07-16T04:08:09.036Z,19.00
2018-07-16T04:10:42.211Z,19.10
2018-07-16T04:13:11.644Z,19.10
2018-07-16T04:15:40.672Z,19.10
2018-07-16T04:18:13.079Z,19.10
2018-07-16T04:20:42.114Z,19.10
2018-07-16T04:23:11.071Z,19.10
2018-07-16T04:25:40.102Z,19.10
2018-07-16T04:28:09.994Z,19.10
2018-07-16T04:30:40.169Z,19.10
2018-07-16T04:33:09.244Z,19.20
2018-07-16T04:35:38.299Z,19.20
2018-07-16T04:38:07.297Z,19.30
2018-07-16T04:40:36.938Z,19.30
2018-07-16T04:43:06.009Z,19.30
2018-07-16T04:45:35.203Z,19.30
2018-07-16T04:48:04.115Z,19.30
2018-07-16T04:50:33.187Z,19.30
2018-07-16T04:53:03.717Z,19.30
2018-07-16T04:55:32.729Z,19.30
2018-07-16T04:58:01.660Z,19.30
2018-07-16T05:00:30.672Z,19.20
2018-07-16T05:02:59.601Z,19.20
2018-07-16T05:05:28.596Z,19.10
2018-07-16T05:07:57.811Z,19.00
2018-07-16T05:10:27.287Z,19.00
2018-07-16T05:12:56.311Z,19.00
2018-07-16T05:15:25.336Z,19.00
2018-07-16T05:17:54.286Z,19.00
2018-07-16T05:20:23.936Z,19.00
2018-07-16T05:22:55.995Z,19.00
2018-07-16T05:25:26.065Z,19.00
2018-07-16T05:27:55.376Z,19.00
2018-07-16T05:32:53.133Z,19.20
2018-07-16T05:37:51.607Z,19.20
2018-07-16T05:40:21.279Z,19.30
2018-07-16T05:42:51.602Z,19.30
2018-07-16T05:45:22.294Z,19.40
2018-07-16T05:47:53.111Z,19.50
2018-07-16T05:50:22.312Z,19.50
2018-07-16T05:52:51.916Z,19.50
2018-07-16T05:55:23.894Z,19.50
2018-07-16T05:57:53.193Z,19.50
2018-07-16T06:00:22.227Z,19.60
2018-07-16T06:02:51.278Z,19.70
2018-07-16T06:05:22.123Z,19.80
2018-07-16T06:07:51.668Z,19.90
2018-07-16T06:10:21.770Z,20.00
2018-07-16T06:12:53.416Z,20.10
2018-07-16T06:17:51.169Z,20.10
2018-07-16T06:20:20.225Z,20.30
2018-07-16T06:22:49.600Z,20.70
2018-07-16T06:27:47.299Z,22.80
2018-07-16T06:30:16.255Z,23.80
2018-07-16T06:32:45.255Z,24.30
2018-07-16T06:37:50.551Z,24.90
2018-07-16T06:40:19.861Z,26.20
2018-07-16T06:42:48.612Z,27.40
2018-07-16T06:45:17.499Z,27.30
2018-07-16T06:47:49.029Z,27.50
2018-07-16T06:50:19.166Z,28.70
2018-07-16T06:52:48.618Z,28.80
2018-07-16T06:55:19.718Z,28.60
2018-07-16T07:00:30.310Z,29.10
2018-07-16T07:03:00.201Z,28.70
2018-07-16T07:05:30.287Z,28.90
2018-07-16T07:08:11.220Z,29.40
2018-07-16T07:10:41.280Z,30.50
2018-07-16T07:13:18.791Z,30.30
2018-07-16T07:15:49.144Z,30.40
2018-07-16T07:20:51.195Z,30.60
2018-07-16T07:23:20.720Z,30.30
2018-07-16T07:25:51.094Z,30.30
2018-07-16T07:28:20.707Z,30.60
2018-07-16T07:30:53.487Z,30.90
2018-07-16T07:33:22.738Z,30.80
2018-07-16T07:35:55.406Z,30.80
2018-07-16T07:38:25.405Z,31.10
2018-07-16T07:40:54.339Z,31.10
2018-07-16T07:43:24.457Z,31.50
2018-07-16T07:45:54.192Z,32.00
2018-07-16T07:48:25.369Z,31.80
2018-07-16T07:50:58.308Z,31.60
2018-07-16T07:53:28.643Z,31.60
2018-07-16T07:55:57.601Z,32.30
2018-07-16T07:58:29.711Z,32.50
2018-07-16T08:01:00.937Z,32.50
2018-07-16T08:03:31.199Z,33.00
2018-07-16T08:06:06.836Z,32.90
2018-07-16T08:08:37.099Z,32.40
2018-07-16T08:11:07.181Z,33.00
2018-07-16T08:13:37.318Z,33.70
2018-07-16T08:16:12.174Z,34.10
2018-07-16T08:18:41.557Z,34.50
2018-07-16T08:21:11.782Z,34.40
2018-07-16T08:23:41.569Z,35.20
2018-07-16T08:26:11.686Z,35.10
2018-07-16T08:28:40.902Z,35.00
2018-07-16T08:31:10.004Z,35.20
2018-07-16T08:33:39.375Z,33.50
2018-07-16T08:36:09.623Z,33.20
2018-07-16T08:38:38.687Z,33.70
2018-07-16T08:41:07.812Z,34.30
2018-07-16T08:43:37.089Z,34.20
2018-07-16T08:46:09.637Z,35.00
2018-07-16T08:48:40.552Z,35.60
2018-07-16T08:51:11.671Z,35.10
2018-07-16T08:53:40.956Z,33.50
2018-07-16T08:56:12.038Z,32.80
2018-07-16T08:58:41.416Z,33.80
2018-07-16T09:01:10.585Z,34.00
2018-07-16T09:03:40.089Z,34.70
2018-07-16T09:06:21.857Z,35.90
2018-07-16T09:08:54.577Z,36.10
2018-07-16T09:11:26.233Z,35.90
2018-07-16T09:13:59.787Z,37.50
2018-07-16T09:16:31.742Z,37.20
2018-07-16T09:19:03.428Z,35.40
2018-07-16T09:21:36.833Z,34.90
2018-07-16T09:24:10.249Z,35.40
2018-07-16T09:26:41.173Z,36.70
2018-07-16T09:29:17.921Z,37.80
2018-07-16T09:31:54.586Z,37.30
2018-07-16T09:34:24.793Z,36.60
2018-07-16T09:36:56.909Z,37.40
2018-07-16T09:39:30.266Z,36.70
2018-07-16T09:42:02.705Z,35.60
2018-07-16T09:44:32.702Z,35.90
2018-07-16T09:47:16.733Z,35.40
2018-07-16T09:50:05.139Z,34.90
2018-07-16T09:52:48.353Z,36.50
2018-07-16T09:55:29.535Z,36.30
2018-07-16T09:58:00.148Z,36.10
2018-07-16T10:03:07.428Z,37.60
2018-07-16T10:05:42.742Z,38.50
2018-07-16T10:10:41.576Z,38.80
2018-07-16T10:13:11.933Z,38.60
2018-07-16T10:15:41.812Z,38.70
2018-07-16T10:18:13.757Z,39.80
2018-07-16T10:20:45.059Z,40.10
2018-07-16T10:23:16.604Z,40.30
2018-07-16T10:28:20.720Z,41.80
2018-07-16T10:30:54.050Z,41.30
2018-07-16T10:33:24.635Z,41.20
2018-07-16T10:35:55.353Z,40.90
2018-07-16T10:38:24.732Z,41.20
2018-07-16T10:40:54.489Z,41.40
2018-07-16T10:43:25.123Z,41.40
2018-07-16T10:45:57.217Z,40.10
2018-07-16T10:48:27.332Z,39.70
2018-07-16T10:50:56.656Z,40.40
2018-07-16T10:55:58.357Z,41.10
2018-07-16T10:58:27.720Z,41.30
2018-07-16T11:00:57.339Z,41.50
2018-07-16T11:03:28.354Z,41.90
2018-07-16T11:06:03.106Z,42.10
2018-07-16T11:08:34.439Z,40.70
2018-07-16T11:13:33.724Z,41.10
2018-07-16T11:16:03.940Z,41.40
2018-07-16T11:18:35.820Z,42.20
2018-07-16T11:21:05.718Z,41.70
2018-07-16T11:23:35.285Z,42.00
2018-07-16T11:26:04.550Z,41.50
2018-07-16T11:28:33.745Z,42.80
2018-07-16T11:38:43.817Z,42.80
2018-07-16T11:41:12.856Z,43.00
2018-07-16T11:43:41.905Z,42.40
2018-07-16T11:46:11.911Z,42.60
2018-07-16T11:48:49.621Z,43.10
2018-07-16T11:51:49.286Z,41.50
2018-07-16T11:54:21.114Z,41.00
2018-07-16T11:56:50.422Z,40.50
2018-07-16T11:59:22.158Z,39.80
2018-07-16T12:01:51.874Z,39.50
2018-07-16T12:04:20.876Z,40.00
2018-07-16T12:06:50.303Z,40.60
2018-07-16T12:09:19.318Z,41.50
2018-07-16T12:11:48.940Z,41.00
2018-07-16T12:14:18.075Z,41.00
2018-07-16T12:16:47.400Z,41.90
2018-07-16T12:19:18.281Z,41.60
2018-07-16T12:21:47.715Z,41.10
2018-07-16T12:24:17.337Z,40.30
2018-07-16T12:26:55.434Z,39.80
2018-07-16T12:29:32.942Z,39.10
2018-07-16T12:32:03.194Z,40.10
2018-07-16T12:34:33.625Z,40.80
2018-07-16T12:37:22.548Z,41.20
2018-07-16T12:40:01.081Z,41.60
2018-07-16T12:42:30.748Z,39.80
2018-07-16T12:45:00.512Z,39.60
2018-07-16T12:47:30.218Z,38.70
2018-07-16T12:49:59.345Z,39.10
2018-07-16T12:52:29.136Z,39.20
2018-07-16T12:54:58.255Z,39.80
2018-07-16T12:57:29.774Z,39.20
2018-07-16T13:00:02.596Z,39.40
2018-07-16T13:02:32.278Z,39.00
2018-07-16T13:05:01.265Z,38.00
2018-07-16T13:07:30.610Z,38.30
2018-07-16T13:10:08.295Z,38.60
2018-07-16T13:12:38.557Z,38.70
2018-07-16T13:15:08.334Z,38.90
2018-07-16T13:17:44.657Z,38.40
2018-07-16T13:20:16.088Z,38.70
2018-07-16T13:22:49.480Z,38.50
2018-07-16T13:25:20.713Z,38.00
2018-07-16T13:27:52.351Z,38.50
2018-07-16T13:30:39.664Z,39.00
2018-07-16T13:33:25.147Z,39.30
2018-07-16T13:35:57.932Z,39.80
2018-07-16T13:38:27.496Z,37.70
2018-07-16T13:40:56.577Z,35.80
2018-07-16T13:43:26.212Z,34.90
2018-07-16T13:45:56.744Z,34.60
2018-07-16T13:48:26.873Z,34.20
2018-07-16T13:50:57.135Z,33.90
2018-07-16T13:53:26.915Z,33.60
2018-07-16T13:55:56.409Z,33.10
2018-07-16T13:58:26.325Z,33.00
2018-07-16T14:00:55.816Z,32.70
2018-07-16T14:05:58.789Z,32.40
2018-07-16T14:08:29.252Z,32.60
2018-07-16T14:13:28.997Z,32.90
2018-07-16T14:15:59.185Z,32.80
2018-07-16T14:21:10.193Z,32.20
2018-07-16T14:23:40.086Z,32.00
2018-07-16T14:26:09.687Z,32.00
2018-07-16T14:28:39.104Z,32.00
2018-07-16T14:31:08.313Z,32.20
2018-07-16T14:33:37.725Z,32.30
2018-07-16T14:36:06.992Z,32.00
2018-07-16T14:38:38.066Z,32.00
2018-07-16T14:41:08.538Z,31.80
2018-07-16T14:43:39.264Z,32.00
2018-07-16T14:46:14.936Z,32.00
2018-07-16T14:48:54.601Z,32.20
2018-07-16T14:51:29.023Z,32.20
2018-07-16T14:53:59.139Z,32.70
2018-07-16T14:56:29.076Z,32.80
2018-07-16T14:58:59.997Z,32.70
2018-07-16T15:01:29.831Z,32.60
2018-07-16T15:04:00.497Z,32.20
2018-07-16T15:06:30.270Z,32.00
2018-07-16T15:09:01.693Z,32.10
2018-07-16T15:11:32.221Z,32.10
2018-07-16T15:14:02.381Z,32.20
2018-07-16T15:16:34.780Z,32.30
2018-07-16T15:19:04.623Z,32.20
2018-07-16T15:21:35.141Z,31.90
2018-07-16T15:24:05.403Z,31.90
2018-07-16T15:26:37.425Z,32.00
2018-07-16T15:29:11.801Z,32.20
2018-07-16T15:31:49.505Z,32.20
2018-07-16T15:34:19.295Z,32.00
2018-07-16T15:36:49.280Z,31.90
2018-07-16T15:39:19.092Z,31.90
2018-07-16T15:41:51.199Z,31.50
2018-07-16T15:44:23.743Z,31.30
2018-07-16T15:46:55.333Z,31.30
2018-07-16T15:49:25.070Z,31.30
2018-07-16T15:52:02.816Z,31.30
2018-07-16T15:54:35.393Z,31.50
2018-07-16T15:57:06.074Z,31.90
2018-07-16T15:59:35.211Z,32.10
2018-07-16T16:02:05.888Z,32.00
2018-07-16T16:04:37.293Z,32.10
2018-07-16T16:07:08.583Z,31.90
2018-07-16T16:09:40.173Z,31.70
2018-07-16T16:12:09.856Z,31.60
2018-07-16T16:14:39.457Z,31.40
2018-07-16T16:17:08.885Z,31.40
2018-07-16T16:19:37.979Z,31.40
2018-07-16T16:22:09.151Z,31.50
2018-07-16T16:24:39.560Z,31.70
2018-07-16T16:27:11.525Z,31.80
2018-07-16T16:29:42.091Z,31.70
2018-07-16T16:32:15.927Z,31.50
2018-07-16T16:34:46.320Z,31.50
2018-07-16T16:37:18.364Z,31.60
2018-07-16T16:39:51.247Z,31.30
2018-07-16T16:42:20.635Z,31.10
2018-07-16T16:45:17.439Z,31.30
2018-07-16T16:47:57.603Z,31.40
2018-07-16T16:50:27.261Z,31.50
2018-07-16T16:53:00.466Z,31.70
2018-07-16T16:55:31.428Z,31.70
2018-07-16T16:58:01.536Z,31.70
2018-07-16T17:00:36.143Z,31.70
2018-07-16T17:03:08.130Z,31.60
2018-07-16T17:05:41.155Z,31.50
2018-07-16T17:08:15.725Z,31.50
2018-07-16T17:10:47.815Z,31.20
2018-07-16T17:13:25.746Z,31.10
2018-07-16T17:16:03.735Z,31.30
2018-07-16T17:18:42.245Z,31.30
2018-07-16T17:21:17.987Z,31.30
2018-07-16T17:24:00.359Z,31.20
2018-07-16T17:26:34.445Z,31.20
2018-07-16T17:29:04.092Z,31.20
2018-07-16T17:31:38.817Z,31.10
2018-07-16T17:34:13.435Z,31.00
2018-07-16T17:36:47.883Z,30.90
2018-07-16T17:39:19.247Z,30.80
2018-07-16T17:41:55.537Z,30.80
2018-07-16T17:44:30.366Z,30.60
2018-07-16T17:47:03.227Z,30.50
2018-07-16T17:49:34.476Z,30.30
2018-07-16T17:52:10.957Z,30.30
2018-07-16T17:55:00.115Z,30.30
2018-07-16T17:57:39.642Z,30.20
2018-07-16T18:00:12.606Z,30.10
2018-07-16T18:02:48.579Z,30.10
2018-07-16T18:05:18.714Z,30.00
2018-07-16T18:07:48.330Z,30.00
2018-07-16T18:10:17.778Z,29.90
2018-07-16T18:12:52.411Z,30.00
2018-07-16T18:15:26.798Z,30.10
2018-07-16T18:18:01.340Z,30.10
2018-07-16T18:20:38.700Z,30.00
2018-07-16T18:23:10.526Z,29.90
2018-07-16T18:25:41.084Z,29.90
2018-07-16T18:28:10.827Z,30.00
2018-07-16T18:30:40.824Z,29.80
2018-07-16T18:33:11.588Z,29.80
2018-07-16T18:35:43.652Z,29.70
2018-07-16T18:38:17.397Z,29.70
2018-07-16T18:40:51.270Z,29.70
2018-07-16T18:43:22.769Z,29.70
2018-07-16T18:45:59.629Z,29.70
2018-07-16T18:48:29.921Z,29.60
2018-07-16T18:50:59.790Z,29.60
2018-07-16T18:53:29.606Z,29.50
2018-07-16T18:56:18.736Z,29.50
2018-07-16T18:58:59.214Z,29.50
2018-07-16T19:01:33.720Z,29.40
2018-07-16T19:04:03.638Z,29.40
2018-07-16T19:06:36.613Z,29.40
2018-07-16T19:09:12.501Z,29.30
2018-07-16T19:11:48.243Z,29.30
2018-07-16T19:14:27.950Z,29.20
2018-07-16T19:16:59.040Z,29.10
2018-07-16T19:19:31.625Z,29.00
2018-07-16T19:22:04.339Z,29.00
2018-07-16T19:24:40.369Z,29.00
2018-07-16T19:27:12.516Z,29.00
2018-07-16T19:29:43.488Z,29.00
2018-07-16T19:32:14.833Z,28.80
2018-07-16T19:37:14.890Z,28.70
2018-07-16T19:39:44.195Z,28.70
2018-07-16T19:42:14.093Z,28.70
2018-07-16T19:44:45.533Z,28.60
2018-07-16T19:47:27.795Z,28.60
2018-07-16T19:50:00.143Z,28.50
2018-07-16T19:52:29.522Z,28.40
2018-07-16T19:54:59.746Z,28.40
2018-07-16T19:57:37.734Z,28.30
2018-07-16T20:00:08.418Z,28.30
2018-07-16T20:02:41.800Z,28.30
2018-07-16T20:05:13.724Z,28.30
2018-07-16T20:07:45.280Z,28.30
2018-07-16T20:10:15.132Z,28.20
2018-07-16T20:12:46.249Z,28.20
2018-07-16T20:15:20.339Z,28.20
2018-07-16T20:17:50.763Z,27.90
2018-07-16T20:20:22.157Z,27.60
2018-07-16T20:22:54.034Z,27.50
2018-07-16T20:25:24.490Z,27.60
2018-07-16T20:30:23.056Z,27.60
2018-07-16T20:32:53.173Z,27.50
2018-07-16T20:35:23.223Z,27.40
2018-07-16T20:37:55.244Z,27.40
2018-07-16T20:40:25.770Z,27.50
2018-07-16T20:45:31.195Z,27.40
2018-07-16T20:48:00.304Z,27.40
2018-07-16T20:50:35.810Z,27.40
2018-07-16T20:53:08.084Z,27.40
2018-07-16T20:55:59.096Z,27.50
2018-07-16T20:58:49.841Z,27.50
2018-07-16T21:01:21.076Z,27.60
2018-07-16T21:03:50.380Z,27.60
2018-07-16T21:06:19.799Z,27.20
2018-07-16T21:08:52.710Z,27.10
2018-07-16T21:11:22.995Z,27.10
2018-07-16T21:14:00.610Z,27.00
2018-07-16T21:16:35.900Z,26.90
2018-07-16T21:21:41.506Z,26.80
2018-07-16T21:24:15.064Z,26.90
2018-07-16T21:26:59.991Z,26.90
2018-07-16T21:29:32.078Z,26.90
2018-07-16T21:32:06.233Z,26.80
2018-07-16T21:34:38.841Z,26.70
2018-07-16T21:37:14.087Z,26.40
2018-07-16T21:39:59.656Z,26.40
2018-07-16T21:42:32.457Z,26.30
2018-07-16T21:45:06.750Z,26.30
2018-07-16T21:47:41.809Z,26.10
2018-07-16T21:50:11.262Z,26.10
2018-07-16T21:52:41.261Z,26.10
2018-07-16T21:55:15.591Z,26.20
2018-07-16T21:57:47.167Z,26.20
2018-07-16T22:00:28.535Z,26.00
2018-07-16T22:03:18.008Z,25.70
2018-07-16T22:05:56.444Z,25.60
2018-07-16T22:08:27.173Z,25.30
2018-07-16T22:10:59.282Z,25.20
2018-07-16T22:13:42.619Z,25.20
2018-07-16T22:16:19.409Z,25.10
2018-07-16T22:24:42.404Z,25.10
2018-07-16T22:27:16.621Z,25.00
2018-07-16T22:29:48.455Z,25.00
2018-07-16T22:32:20.261Z,25.00
2018-07-16T22:34:51.148Z,25.00
2018-07-16T22:37:21.566Z,24.90
2018-07-16T22:39:53.101Z,24.80
2018-07-16T22:44:53.281Z,24.60
2018-07-16T22:47:24.455Z,24.60
2018-07-16T22:49:54.516Z,24.60
2018-07-16T22:52:26.654Z,24.50
2018-07-16T22:54:57.079Z,24.50
2018-07-16T22:57:28.013Z,24.40
2018-07-16T22:59:58.814Z,24.30
2018-07-16T23:02:31.575Z,24.20
2018-07-16T23:05:01.150Z,24.30
2018-07-16T23:07:30.773Z,24.20
2018-07-16T23:10:01.909Z,24.10
2018-07-16T23:12:32.034Z,24.00
2018-07-16T23:15:04.246Z,24.00
2018-07-16T23:17:34.760Z,24.00
2018-07-16T23:20:07.093Z,23.90
2018-07-16T23:25:23.551Z,24.00
2018-07-16T23:27:53.115Z,24.10
2018-07-16T23:30:25.285Z,24.00
2018-07-16T23:32:56.226Z,23.90
2018-07-16T23:35:28.485Z,23.90
2018-07-16T23:40:28.107Z,23.60
2018-07-16T23:43:00.408Z,23.50
2018-07-16T23:45:29.634Z,23.40
2018-07-16T23:48:01.074Z,23.40
2018-07-16T23:50:31.387Z,23.20
2018-07-16T23:53:02.574Z,23.00
2018-07-16T23:55:34.101Z,22.90
